• Join FlightAware (Why Join?)
  • Login
  • US Flag 
07:37PM EDT


 

Airport Tracker/Info


-or-


 

Live Flight TrackerFlight Track Log ✈ N700QA ✈ 11-Sep-2013 ✈ KAPA - KPHX

Flight Track Log - Related Links

Times and Time Zones

All times are in EDT time to prevent confusion due to time zone crossing. See the N700QA flight status page for this flight to view local times or setup timezone preferences in your user account.

Time Position Orientation Groundspeed Altitude Reporting Facility
EDT Latitude Longitude Course Direction KTS MPH feet Rate Location/Type
10:00PM 39.6000 -104.8167 90° East 198 228 7,500  Level Denver TRACON
10:01PM 39.6000 -104.7500 90° East 209 241 9,000 1,440 Climbing Denver TRACON
10:02PM 39.5778 -104.6967 118° Southeast 224 258 9,800 1,260 Climbing Denver Center
10:03PM 39.5164 -104.6606 156° South 255 293 11,200 1,560 Climbing Denver Center
10:04PM 39.4300 -104.6553 177° South 285 328 13,100 1,680 Climbing Denver Center
10:05PM 39.3322 -104.6822 192° South 299 344 15,100 1,620 Climbing Denver Center
10:06PM 39.2808 -104.7658 232° Southwest 298 343 16,900 1,380 Climbing Denver Center
10:07PM 39.2383 -104.8614 240° Southwest 308 354 18,000 1,140 Climbing Denver Center
10:08PM 39.1822 -104.9508 231° Southwest 331 381 19,300 1,200 Climbing Denver Center
10:09PM 39.1003 -104.9886 200° South 315 362 20,500 1,320 Climbing Denver Center
10:10PM 39.0164 -105.0289 200° South 318 366 22,100 1,020 Climbing Denver Center
10:11PM 38.9483 -105.0614 200° South 322 371 22,600 1,080 Climbing Denver Center
10:12PM 38.8381 -105.1128 200° South 327 376 24,300 1,080 Climbing Denver Center
10:13PM 38.7511 -105.1308 189° South 327 376 24,900 720 Climbing Denver Center
10:14PM 38.6586 -105.1889 206° Southwest 331 381 26,000 840 Climbing Denver Center
10:15PM 38.5747 -105.2925 224° Southwest 336 387 26,900 780 Climbing Denver Center
10:16PM 38.5083 -105.3744 224° Southwest 334 384 27,700 720 Climbing Denver Center
10:17PM 38.4392 -105.4561 223° Southwest 338 389 28,400 600 Climbing Denver Center
10:18PM 38.3700 -105.5403 224° Southwest 343 395 29,000 540 Climbing Denver Center
10:19PM 38.2989 -105.6283 224° Southwest 345 397 29,500 480 Climbing Denver Center
10:20PM 38.2206 -105.7228 223° Southwest 348 400 30,100 540 Climbing Denver Center
10:21PM 38.1522 -105.8050 223° Southwest 352 405 30,700 540 Climbing Denver Center
10:22PM 38.0739 -105.8989 223° Southwest 348 400 31,200 540 Climbing Denver Center
10:24PM 38.0053 -105.9811 223° Southwest 352 405 31,900 660 Climbing Denver Center
10:25PM 37.9375 -106.0617 223° Southwest 350 403 32,600 600 Climbing Denver Center
10:26PM 37.8603 -106.1542 223° Southwest 343 395 33,200 480 Climbing Denver Center
10:27PM 37.7922 -106.2339 223° Southwest 346 398 33,700 360 Climbing Denver Center
10:28PM 37.7136 -106.3269 223° Southwest 348 400 34,000 120 Climbing Denver Center
10:29PM 37.6461 -106.4075 223° Southwest 355 409 34,000  Level Denver Center
10:30PM 37.5744 -106.4917 223° Southwest 367 422 34,100 -60 Climbing Denver Center
10:31PM 37.4881 -106.5922 223° Southwest 377 434 33,900 -60 Descending Denver Center
10:32PM 37.4142 -106.6797 223° Southwest 382 440 34,000  Climbing Denver Center
10:33PM 37.3278 -106.7789 222° Southwest 376 433 34,000  Level Denver Center
10:34PM 37.2553 -106.8678 224° Southwest 379 436 34,000  Level Denver Center
10:35PM 37.1806 -106.9517 222° Southwest 378 435 34,000  Level Denver Center
10:36PM 37.0950 -107.0525 223° Southwest 377 434 34,000  Level Denver Center
10:37PM 37.0203 -107.1381 222° Southwest 380 437 34,000  Level Denver Center
10:38PM 36.9467 -107.2253 223° Southwest 379 436 34,000  Level Denver Center
10:39PM 36.8597 -107.3233 222° Southwest 378 435 34,000  Level Denver Center
10:40PM 36.7844 -107.4083 222° Southwest 379 436 34,000  Level Denver Center
10:41PM 36.7222 -107.4803 223° Southwest 380 437 34,000  Level Denver Center
10:42PM 36.6242 -107.5936 223° Southwest 376 433 34,000  Level Denver Center
10:43PM 36.5489 -107.6772 222° Southwest 377 434 34,100  Climbing Denver Center
10:44PM 36.4617 -107.7753 222° Southwest 378 435 34,100 -60 Level Denver Center
10:45PM 36.3881 -107.8594 223° Southwest 377 434 34,000 -60 Descending Denver Center
10:46PM 36.3136 -107.9417 222° Southwest 374 430 34,000  Level Denver Center
10:47PM 36.2275 -108.0397 223° Southwest 375 432 34,100  Climbing Denver Center
10:48PM 36.1522 -108.1236 222° Southwest 375 432 34,100  Level Albuquerque Center
10:49PM 36.0789 -108.2067 222° Southwest 374 430 34,100 -60 Level Albuquerque Center
10:50PM 35.9925 -108.3028 222° Southwest 372 428 34,000 -60 Descending Albuquerque Center
10:51PM 35.9186 -108.3842 222° Southwest 370 426 34,000  Level Albuquerque Center
10:52PM 35.8456 -108.4656 222° Southwest 368 423 34,000  Level Albuquerque Center
10:53PM 35.7600 -108.5611 222° Southwest 369 425 34,100  Climbing Albuquerque Center
10:54PM 35.6858 -108.6425 222° Southwest 370 426 34,000 -60 Descending Albuquerque Center
10:55PM 35.6097 -108.7236 221° Southwest 374 430 34,000  Level Albuquerque Center
10:56PM 35.5244 -108.8189 222° Southwest 371 427 34,000  Level Albuquerque Center
10:57PM 35.4503 -108.9000 222° Southwest 371 427 34,000  Level Albuquerque Center
10:58PM 35.3722 -109.0036 227° Southwest 369 425 34,000  Level Albuquerque Center
10:59PM 35.3044 -109.0919 227° Southwest 370 426 34,000  Level Albuquerque Center
11:00PM 35.2356 -109.1786 226° Southwest 371 427 34,100  Climbing Albuquerque Center
11:01PM 35.1561 -109.2825 227° Southwest 373 429 34,000 -60 Descending Albuquerque Center
11:02PM 35.0878 -109.3686 226° Southwest 370 426 34,000  Level Albuquerque Center
11:03PM 35.0200 -109.4547 226° Southwest 369 425 34,100  Climbing Albuquerque Center
11:04PM 34.9408 -109.5575 227° Southwest 370 426 34,100 -60 Level Albuquerque Center
11:05PM 34.8725 -109.6439 226° Southwest 370 426 34,000 -60 Descending Albuquerque Center
11:06PM 34.7936 -109.7442 226° Southwest 368 423 34,000 -360 Level Albuquerque Center
11:07PM 34.7253 -109.8306 226° Southwest 369 425 33,300 -1,020 Descending Albuquerque Center
11:08PM 34.6747 -109.9392 241° Southwest 376 433 32,000 -1,260 Descending Albuquerque Center
11:09PM 34.6253 -110.0744 246° West 390 449 30,800 -1,440 Descending Albuquerque Center
11:10PM 34.5747 -110.1897 242° Southwest 400 460 29,100 -1,800 Descending Albuquerque Center
11:11PM 34.5117 -110.2828 231° Southwest 394 453 27,200 -1,980 Descending Albuquerque Center
11:13PM 34.4478 -110.3961 236° Southwest 372 428 25,100 -1,920 Descending Albuquerque Center
11:14PM 34.4008 -110.4944 240° Southwest 374 430 23,300 -1,920 Descending Albuquerque Center
11:15PM 34.3428 -110.5969 236° Southwest 370 426 21,300 -2,100 Descending Albuquerque Center
11:16PM 34.2728 -110.7192 235° Southwest 369 425 19,000 -2,100 Descending Albuquerque Center
11:17PM 34.2075 -110.8208 232° Southwest 386 444 17,000 -1,920 Descending Albuquerque Center
11:18PM 34.1486 -110.9239 235° Southwest 376 433 15,100 -1,800 Descending Albuquerque Center
11:19PM 34.0936 -111.0258 237° Southwest 370 426 13,400 -1,500 Descending Albuquerque Center
11:20PM 34.0397 -111.1219 236° Southwest 359 413 12,100 -780 Descending Albuquerque Center
11:21PM 33.9872 -111.2139 235° Southwest 346 398 11,900 -120 Descending Albuquerque Center
11:22PM 33.9400 -111.2975 236° Southwest 308 354 11,900  Level Albuquerque Center
11:23PM 33.8922 -111.3817 236° Southwest 304 350 11,900  Level Albuquerque Center
11:24PM 33.8397 -111.4622 232° Southwest 303 349 11,900 -420 Level Albuquerque Center
11:25PM 33.7756 -111.5294 221° Southwest 304 350 11,100 -840 Descending Albuquerque Center
11:26PM 33.7047 -111.5833 212° Southwest 301 346 10,200 -1,020 Descending Albuquerque Center
11:27PM 33.6269 -111.6211 202° Southwest 300 345 9,100 -1,800 Descending Albuquerque Center
11:28PM 33.5375 -111.6631 201° Southwest 288 331 6,600 -1,620 Descending Albuquerque Center
11:29PM 33.4719 -111.6936 201° Southwest 257 296 5,800 -840 Descending Albuquerque Center
11:30PM 33.4206 -111.7183 202° Southwest 203 234 5,000 -660 Descending Albuquerque Center
11:31PM 33.4189 -111.7800 268° West 187 215 4,500 -600 Descending Albuquerque Center
11:32PM 33.4247 -111.8378 277° West 170 196 3,800 -780 Descending Albuquerque Center
11:33PM 33.4278 -111.8861 274° West 155 178 3,000 -840 Descending Albuquerque Center
11:33PM 33.4333 -111.9167 282° West 144 166 2,600 -780 Descending Phoenix TRACON
11:35PM 33.4333 -111.9667 270° West 128 147 1,800 -780 Descending Phoenix TRACON